Time;durP1;ratioP1;P1;durP2;ratioP2;P2;SDS_P1;SDS_P2;PMS_P1;PMS_P2;Temp;Humidity;BMP_temperature;BMP_pressure;BME280_temperature;BME280_humidity;BME280_pressure;Samples;Min_cycle;Max_cycle;Signal;HPM_P1;HPM_P2
2021/05/02 00:00:10;;;;;;;0.00;0.00;;;;;;;;;;5044915;28;20296;-65
2021/05/02 00:02:38;;;;;;;0.10;0.10;;;;;;;;;;5037738;28;20648;-65
2021/05/02 00:05:08;;;;;;;0.30;0.10;;;;;;;;;;5036240;28;20455;-65
2021/05/02 00:07:39;;;;;;;2.27;1.17;;;;;;;;;;5033066;28;20202;-65
2021/05/02 00:10:06;;;;;;;0.40;0.40;;;;;;;;;;5034121;28;20670;-65
2021/05/02 00:12:33;;;;;;;0.00;0.00;;;;;;;;;;5041785;28;20197;-66
2021/05/02 00:15:02;;;;;;;0.10;0.10;;;;;;;;;;5045503;28;20542;-65
2021/05/02 00:17:30;;;;;;;1.03;0.63;;;;;;;;;;5039205;28;20737;-65
2021/05/02 00:20:00;;;;;;;0.13;0.10;;;;;;;;;;5041678;28;20202;-65
2021/05/02 00:22:29;;;;;;;0.20;0.20;;;;;;;;;;5032170;28;20188;-65
2021/05/02 00:24:55;;;;;;;0.10;0.10;;;;;;;;;;5044103;28;20183;-64
2021/05/02 00:27:22;;;;;;;0.13;0.13;;;;;;;;;;5039431;28;20199;-65
2021/05/02 00:29:49;;;;;;;0.30;0.30;;;;;;;;;;5039378;28;20187;-65
2021/05/02 00:32:15;;;;;;;3.13;0.50;;;;;;;;;;5039566;28;20294;-65
2021/05/02 00:34:44;;;;;;;0.10;0.10;;;;;;;;;;5033493;28;20188;-65
2021/05/02 00:37:16;;;;;;;0.00;0.00;;;;;;;;;;5038625;28;20222;-64
2021/05/02 00:39:43;;;;;;;1.70;1.13;;;;;;;;;;5036839;28;20192;-64
2021/05/02 00:42:15;;;;;;;0.30;0.30;;;;;;;;;;5039726;28;20191;-65
2021/05/02 00:44:51;;;;;;;2.50;1.60;;;;;;;;;;5036319;28;20183;-65
2021/05/02 00:47:19;;;;;;;0.33;0.33;;;;;;;;;;5036674;28;20240;-64
2021/05/02 00:49:59;;;;;;;1.90;1.17;;;;;;;;;;5040617;28;20679;-65
2021/05/02 00:52:39;;;;;;;7.67;2.23;;;;;;;;;;5039299;28;20934;-64
2021/05/02 00:55:10;;;;;;;10.93;4.50;;;;;;;;;;5039506;28;20204;-69
2021/05/02 00:57:46;;;;;;;0.27;0.27;;;;;;;;;;5042919;28;20243;-68
2021/05/02 01:00:15;;;;;;;0.10;0.10;;;;;;;;;;5031868;28;20266;-68
2021/05/02 01:02:42;;;;;;;0.50;0.50;;;;;;;;;;5041524;28;20540;-67
2021/05/02 01:05:12;;;;;;;0.50;0.30;;;;;;;;;;5044003;28;20186;-67
2021/05/02 01:07:39;;;;;;;0.00;0.00;;;;;;;;;;5034563;28;20277;-67
2021/05/02 01:10:10;;;;;;;0.40;0.40;;;;;;;;;;5041588;28;20574;-68
2021/05/02 01:12:43;;;;;;;1.07;1.07;;;;;;;;;;5044763;28;20335;-67
2021/05/02 01:15:15;;;;;;;0.17;0.17;;;;;;;;;;5043021;28;20188;-69
2021/05/02 01:17:43;;;;;;;0.00;0.00;;;;;;;;;;5041305;28;20250;-68
2021/05/02 01:20:10;;;;;;;0.00;0.00;;;;;;;;;;5044256;28;20188;-67
2021/05/02 01:22:38;;;;;;;0.73;0.53;;;;;;;;;;5043500;28;20264;-67
2021/05/02 01:25:05;;;;;;;0.57;0.57;;;;;;;;;;5042349;28;20215;-68
2021/05/02 01:27:34;;;;;;;1.80;0.67;;;;;;;;;;5041465;28;20219;-68
2021/05/02 01:30:01;;;;;;;0.57;0.40;;;;;;;;;;5044105;28;20207;-67
2021/05/02 01:32:29;;;;;;;0.70;0.50;;;;;;;;;;5042430;28;20246;-67
2021/05/02 01:34:56;;;;;;;0.00;0.00;;;;;;;;;;5033218;28;20397;-68
2021/05/02 01:37:23;;;;;;;0.13;0.13;;;;;;;;;;5042227;28;20827;-67
2021/05/02 01:39:50;;;;;;;0.00;0.00;;;;;;;;;;5034534;28;20259;-68
2021/05/02 01:42:17;;;;;;;0.00;0.00;;;;;;;;;;5033947;28;20190;-68
2021/05/02 01:44:44;;;;;;;0.00;0.00;;;;;;;;;;5044217;28;20187;-68
2021/05/02 01:47:17;;;;;;;0.03;0.03;;;;;;;;;;5041791;28;20192;-68
2021/05/02 01:49:48;;;;;;;0.00;0.00;;;;;;;;;;5058624;28;20687;-68
2021/05/02 01:52:16;;;;;;;0.10;0.10;;;;;;;;;;5034950;28;20215;-68
2021/05/02 01:54:43;;;;;;;0.10;0.10;;;;;;;;;;5036045;28;20299;-69
2021/05/02 01:57:10;;;;;;;0.00;0.00;;;;;;;;;;5035252;28;20667;-68
2021/05/02 01:59:37;;;;;;;0.00;0.00;;;;;;;;;;5035748;28;20190;-68
2021/05/02 02:02:06;;;;;;;0.30;0.30;;;;;;;;;;5036295;28;20234;-68
2021/05/02 02:04:35;;;;;;;0.13;0.13;;;;;;;;;;5033030;28;20199;-68
2021/05/02 02:07:02;;;;;;;0.73;0.50;;;;;;;;;;5037081;28;20556;-68
2021/05/02 02:09:30;;;;;;;0.00;0.00;;;;;;;;;;5039301;28;20680;-69
2021/05/02 02:11:59;;;;;;;0.00;0.00;;;;;;;;;;5039139;28;20180;-68
2021/05/02 02:14:26;;;;;;;0.00;0.00;;;;;;;;;;5037976;28;20620;-68
2021/05/02 02:16:52;;;;;;;0.20;0.20;;;;;;;;;;5044781;28;20287;-68
2021/05/02 02:19:19;;;;;;;0.20;0.20;;;;;;;;;;5042666;28;20740;-68
2021/05/02 02:21:48;;;;;;;0.00;0.00;;;;;;;;;;5042470;28;20187;-69
2021/05/02 02:24:16;;;;;;;0.00;0.00;;;;;;;;;;5042367;28;20203;-68
2021/05/02 02:26:50;;;;;;;0.20;0.20;;;;;;;;;;5046217;28;20274;-68
2021/05/02 02:29:17;;;;;;;0.73;0.20;;;;;;;;;;5037168;28;20182;-68
2021/05/02 02:31:45;;;;;;;0.00;0.00;;;;;;;;;;5038421;28;20249;-68
2021/05/02 02:34:13;;;;;;;0.00;0.00;;;;;;;;;;5038237;28;20407;-68
2021/05/02 02:36:41;;;;;;;0.00;0.00;;;;;;;;;;5041565;28;20585;-68
2021/05/02 02:39:10;;;;;;;0.00;0.00;;;;;;;;;;5034821;28;20187;-68
2021/05/02 02:41:40;;;;;;;0.20;0.20;;;;;;;;;;5036330;28;20693;-69
2021/05/02 02:44:09;;;;;;;0.00;0.00;;;;;;;;;;5049293;28;20284;-68
2021/05/02 02:46:43;;;;;;;0.10;0.10;;;;;;;;;;5041051;28;20188;-69
2021/05/02 02:49:10;;;;;;;0.10;0.10;;;;;;;;;;5030454;28;20258;-68
2021/05/02 02:51:37;;;;;;;0.00;0.00;;;;;;;;;;5043937;28;20186;-68
2021/05/02 02:54:06;;;;;;;0.53;0.23;;;;;;;;;;5032274;28;20278;-69
2021/05/02 02:56:34;;;;;;;0.13;0.13;;;;;;;;;;5041201;28;20237;-68
2021/05/02 02:59:24;;;;;;;0.10;0.10;;;;;;;;;;5042372;28;20223;-68
2021/05/02 03:01:53;;;;;;;0.10;0.10;;;;;;;;;;5026846;28;20173;-68
2021/05/02 03:04:23;;;;;;;0.10;0.10;;;;;;;;;;5038444;28;20294;-68
2021/05/02 03:06:51;;;;;;;0.00;0.00;;;;;;;;;;5038702;28;20184;-68
2021/05/02 03:09:17;;;;;;;0.43;0.43;;;;;;;;;;5030654;28;20194;-68
2021/05/02 03:11:44;;;;;;;5.70;1.50;;;;;;;;;;5033078;28;20684;-68
2021/05/02 03:14:14;;;;;;;0.27;0.27;;;;;;;;;;5035905;28;20747;-68
2021/05/02 03:16:44;;;;;;;0.00;0.00;;;;;;;;;;5035334;28;20215;-68
2021/05/02 03:19:25;;;;;;;0.00;0.00;;;;;;;;;;5040913;28;20187;-68
2021/05/02 03:21:55;;;;;;;0.10;0.10;;;;;;;;;;5035492;28;20229;-68
2021/05/02 03:24:35;;;;;;;25.37;2.23;;;;;;;;;;5036281;28;20557;-68
2021/05/02 03:27:07;;;;;;;0.20;0.20;;;;;;;;;;5040829;28;20673;-69
2021/05/02 03:29:38;;;;;;;0.30;0.23;;;;;;;;;;5037642;28;20191;-68
2021/05/02 03:32:09;;;;;;;0.30;0.30;;;;;;;;;;5029556;28;20710;-68
2021/05/02 03:34:40;;;;;;;0.10;0.10;;;;;;;;;;5035353;28;20265;-68
2021/05/02 03:37:15;;;;;;;0.10;0.10;;;;;;;;;;5038837;28;20211;-68
2021/05/02 03:39:42;;;;;;;0.00;0.00;;;;;;;;;;5036437;28;20191;-67
2021/05/02 03:42:09;;;;;;;0.30;0.30;;;;;;;;;;5036230;28;20194;-68
2021/05/02 03:44:41;;;;;;;0.00;0.00;;;;;;;;;;5035475;28;20192;-67
2021/05/02 03:47:10;;;;;;;0.00;0.00;;;;;;;;;;5033104;28;20463;-68
2021/05/02 03:49:37;;;;;;;0.87;0.87;;;;;;;;;;5030679;28;20199;-68
2021/05/02 03:52:03;;;;;;;0.00;0.00;;;;;;;;;;5033818;28;20229;-68
2021/05/02 03:54:30;;;;;;;0.00;0.00;;;;;;;;;;5037806;28;20848;-68
2021/05/02 03:56:57;;;;;;;0.00;0.00;;;;;;;;;;5033240;28;20227;-69
2021/05/02 03:59:27;;;;;;;0.00;0.00;;;;;;;;;;5043584;28;20280;-69
2021/05/02 04:01:58;;;;;;;0.67;0.67;;;;;;;;;;5033585;28;20580;-68
2021/05/02 04:04:28;;;;;;;0.10;0.10;;;;;;;;;;5030152;28;20187;-68
2021/05/02 04:07:05;;;;;;;0.00;0.00;;;;;;;;;;5041027;28;20218;-68
2021/05/02 04:09:35;;;;;;;0.40;0.40;;;;;;;;;;5030383;28;20187;-68
2021/05/02 04:12:03;;;;;;;0.00;0.00;;;;;;;;;;5036988;28;20184;-67
2021/05/02 04:14:32;;;;;;;0.00;0.00;;;;;;;;;;5042385;28;20191;-67
2021/05/02 04:17:00;;;;;;;0.20;0.20;;;;;;;;;;5038517;28;20228;-68
2021/05/02 04:19:27;;;;;;;0.00;0.00;;;;;;;;;;5040886;28;20240;-68
2021/05/02 04:21:54;;;;;;;0.10;0.10;;;;;;;;;;5040036;28;20742;-68
2021/05/02 04:24:25;;;;;;;0.00;0.00;;;;;;;;;;5032153;28;20512;-69
2021/05/02 04:26:57;;;;;;;0.67;0.43;;;;;;;;;;5033631;28;20196;-68
2021/05/02 04:29:24;;;;;;;0.10;0.10;;;;;;;;;;5043814;28;20194;-68
2021/05/02 04:32:01;;;;;;;0.00;0.00;;;;;;;;;;5031502;28;20678;-68
2021/05/02 04:34:31;;;;;;;0.40;0.40;;;;;;;;;;5042545;28;20695;-68
2021/05/02 04:37:13;;;;;;;0.27;0.27;;;;;;;;;;5037271;28;20215;-68
2021/05/02 04:39:39;;;;;;;0.27;0.27;;;;;;;;;;5033337;28;20204;-68
2021/05/02 04:42:14;;;;;;;0.10;0.10;;;;;;;;;;5037817;28;20632;-68
2021/05/02 04:44:41;;;;;;;6.40;2.83;;;;;;;;;;5040188;28;20195;-68
2021/05/02 04:47:07;;;;;;;0.00;0.00;;;;;;;;;;5042809;28;20633;-68
2021/05/02 04:49:34;;;;;;;0.10;0.10;;;;;;;;;;5039084;28;20180;-69
2021/05/02 04:52:02;;;;;;;1.43;1.07;;;;;;;;;;5038668;28;20611;-69
2021/05/02 04:54:35;;;;;;;0.10;0.10;;;;;;;;;;5035941;28;20188;-68
2021/05/02 04:57:03;;;;;;;0.13;0.13;;;;;;;;;;5036103;28;20787;-68
2021/05/02 04:59:33;;;;;;;0.10;0.10;;;;;;;;;;5036168;28;20593;-68
2021/05/02 05:02:03;;;;;;;0.03;0.03;;;;;;;;;;5033184;28;20453;-69
2021/05/02 05:04:35;;;;;;;2.23;0.13;;;;;;;;;;5031452;28;20215;-68
2021/05/02 05:07:01;;;;;;;0.30;0.30;;;;;;;;;;5025670;28;20191;-68
2021/05/02 05:09:28;;;;;;;0.27;0.27;;;;;;;;;;5031004;28;20210;-66
2021/05/02 05:11:57;;;;;;;2.33;0.77;;;;;;;;;;5031593;28;20244;-66
2021/05/02 05:14:25;;;;;;;0.20;0.20;;;;;;;;;;5038735;28;20194;-59
2021/05/02 05:16:52;;;;;;;0.00;0.00;;;;;;;;;;5040116;28;20552;-62
2021/05/02 05:19:18;;;;;;;2.43;0.10;;;;;;;;;;5034236;28;20751;-62
2021/05/02 05:21:45;;;;;;;0.00;0.00;;;;;;;;;;5036613;28;20486;-61
2021/05/02 05:24:12;;;;;;;0.00;0.00;;;;;;;;;;5039680;28;20205;-61
2021/05/02 05:26:38;;;;;;;0.00;0.00;;;;;;;;;;5038933;28;20255;-61
2021/05/02 05:29:07;;;;;;;0.33;0.27;;;;;;;;;;5032108;28;20195;-62
2021/05/02 05:31:34;;;;;;;0.00;0.00;;;;;;;;;;5028754;28;20582;-62
2021/05/02 05:34:00;;;;;;;0.10;0.10;;;;;;;;;;5034645;28;20191;-62
2021/05/02 05:36:27;;;;;;;0.00;0.00;;;;;;;;;;5027808;28;20222;-62
2021/05/02 05:38:53;;;;;;;0.53;0.40;;;;;;;;;;5036640;28;20218;-62
2021/05/02 05:41:20;;;;;;;0.00;0.00;;;;;;;;;;5032576;28;20191;-62
2021/05/02 05:43:46;;;;;;;0.00;0.00;;;;;;;;;;5038743;28;20912;-62
2021/05/02 05:46:15;;;;;;;1.50;0.27;;;;;;;;;;5039367;28;20188;-62
2021/05/02 05:48:42;;;;;;;0.53;0.53;;;;;;;;;;5038691;28;20253;-61
2021/05/02 05:51:09;;;;;;;0.00;0.00;;;;;;;;;;5039088;28;20999;-61
2021/05/02 05:53:36;;;;;;;0.30;0.30;;;;;;;;;;5043590;28;20548;-62
2021/05/02 05:56:03;;;;;;;0.10;0.10;;;;;;;;;;5040629;28;20253;-62
2021/05/02 05:58:32;;;;;;;1.70;0.83;;;;;;;;;;5045543;28;20598;-62
2021/05/02 06:00:58;;;;;;;0.10;0.10;;;;;;;;;;5037643;28;20549;-62
2021/05/02 06:03:25;;;;;;;0.57;0.57;;;;;;;;;;5038496;28;20190;-62
2021/05/02 06:05:54;;;;;;;0.47;0.47;;;;;;;;;;5043376;28;20377;-62
2021/05/02 06:08:20;;;;;;;0.57;0.20;;;;;;;;;;5030974;28;20203;-61
2021/05/02 06:10:47;;;;;;;0.00;0.00;;;;;;;;;;5042784;28;20179;-62
2021/05/02 06:13:17;;;;;;;0.00;0.00;;;;;;;;;;5041974;28;20250;-61
2021/05/02 06:15:44;;;;;;;0.00;0.00;;;;;;;;;;5038215;28;20260;-62
2021/05/02 06:18:11;;;;;;;0.10;0.10;;;;;;;;;;5048669;28;20211;-62
2021/05/02 06:20:37;;;;;;;0.67;0.53;;;;;;;;;;5038937;28;20298;-62
2021/05/02 06:23:04;;;;;;;0.40;0.40;;;;;;;;;;5038587;28;20179;-62
2021/05/02 06:25:31;;;;;;;0.00;0.00;;;;;;;;;;5029921;28;20179;-61
2021/05/02 06:27:59;;;;;;;0.13;0.13;;;;;;;;;;5041776;28;20239;-62
2021/05/02 06:30:26;;;;;;;0.00;0.00;;;;;;;;;;5038042;28;20270;-62
2021/05/02 06:32:52;;;;;;;0.00;0.00;;;;;;;;;;5039896;28;20327;-62
2021/05/02 06:35:19;;;;;;;0.00;0.00;;;;;;;;;;5031428;28;20337;-62
2021/05/02 06:37:45;;;;;;;0.23;0.03;;;;;;;;;;5032517;28;20245;-62
2021/05/02 06:40:12;;;;;;;0.60;0.53;;;;;;;;;;5034241;28;20175;-62
2021/05/02 06:42:39;;;;;;;0.47;0.47;;;;;;;;;;5038012;28;20637;-61
2021/05/02 06:45:06;;;;;;;0.20;0.20;;;;;;;;;;5038306;28;20252;-62
2021/05/02 06:47:33;;;;;;;0.10;0.10;;;;;;;;;;5031719;28;20282;-62
2021/05/02 06:49:59;;;;;;;0.00;0.00;;;;;;;;;;5032675;28;20194;-62
2021/05/02 06:52:26;;;;;;;0.00;0.00;;;;;;;;;;5033970;28;20338;-61
2021/05/02 06:54:54;;;;;;;0.10;0.10;;;;;;;;;;5036825;28;20220;-61
2021/05/02 06:57:20;;;;;;;0.10;0.10;;;;;;;;;;5037616;28;20235;-62
2021/05/02 06:59:47;;;;;;;0.17;0.17;;;;;;;;;;5035945;28;20202;-62
2021/05/02 07:02:13;;;;;;;0.00;0.00;;;;;;;;;;5037428;28;20823;-61
2021/05/02 07:04:40;;;;;;;0.47;0.10;;;;;;;;;;5031734;28;20183;-62
2021/05/02 07:07:09;;;;;;;0.00;0.00;;;;;;;;;;5035696;28;20191;-62
2021/05/02 07:09:35;;;;;;;0.20;0.20;;;;;;;;;;5036323;28;20506;-62
2021/05/02 07:12:01;;;;;;;0.43;0.30;;;;;;;;;;5036492;28;20701;-62
2021/05/02 07:14:28;;;;;;;0.00;0.00;;;;;;;;;;5036978;28;20191;-61
2021/05/02 07:16:55;;;;;;;0.30;0.10;;;;;;;;;;5037841;28;20184;-62
2021/05/02 07:19:22;;;;;;;0.00;0.00;;;;;;;;;;5037659;28;20214;-62
2021/05/02 07:21:49;;;;;;;0.00;0.00;;;;;;;;;;5037878;28;20192;-61
2021/05/02 07:24:16;;;;;;;0.00;0.00;;;;;;;;;;5031036;28;20363;-61
2021/05/02 07:26:42;;;;;;;0.33;0.20;;;;;;;;;;5037350;28;20213;-61
2021/05/02 07:29:09;;;;;;;0.00;0.00;;;;;;;;;;5036328;28;20226;-61
2021/05/02 07:31:35;;;;;;;0.20;0.20;;;;;;;;;;5040241;28;20272;-62
2021/05/02 07:34:02;;;;;;;7.63;0.87;;;;;;;;;;5041551;28;20688;-62
2021/05/02 07:36:37;;;;;;;0.00;0.00;;;;;;;;;;5038092;28;20187;-62
2021/05/02 07:39:05;;;;;;;0.07;0.07;;;;;;;;;;5030571;28;20727;-62
2021/05/02 07:41:32;;;;;;;0.43;0.43;;;;;;;;;;5037270;28;20206;-62
2021/05/02 07:43:58;;;;;;;0.10;0.10;;;;;;;;;;5032738;28;20437;-62
2021/05/02 07:46:27;;;;;;;0.00;0.00;;;;;;;;;;5036496;28;20748;-62
2021/05/02 07:48:54;;;;;;;0.00;0.00;;;;;;;;;;5042950;28;20256;-62
2021/05/02 07:51:20;;;;;;;0.00;0.00;;;;;;;;;;5045413;28;20191;-62
2021/05/02 07:53:47;;;;;;;4.47;3.13;;;;;;;;;;5041030;28;20204;-62
2021/05/02 07:56:14;;;;;;;0.20;0.20;;;;;;;;;;5046206;28;20232;-62
2021/05/02 07:58:48;;;;;;;0.20;0.20;;;;;;;;;;5045989;28;20629;-62
2021/05/02 08:01:14;;;;;;;0.00;0.00;;;;;;;;;;5042021;28;20186;-61
2021/05/02 08:03:41;;;;;;;0.00;0.00;;;;;;;;;;5046174;28;20613;-61
2021/05/02 08:06:07;;;;;;;0.03;0.03;;;;;;;;;;5045087;28;20637;-62
2021/05/02 08:08:34;;;;;;;0.00;0.00;;;;;;;;;;5039967;28;20217;-61
2021/05/02 08:11:00;;;;;;;0.00;0.00;;;;;;;;;;5039595;28;20674;-61
2021/05/02 08:13:27;;;;;;;0.00;0.00;;;;;;;;;;5037446;28;20183;-62
2021/05/02 08:15:55;;;;;;;0.00;0.00;;;;;;;;;;5035613;28;20191;-61
2021/05/02 08:18:22;;;;;;;0.00;0.00;;;;;;;;;;5035102;28;20993;-61
2021/05/02 08:20:48;;;;;;;0.30;0.30;;;;;;;;;;5036289;28;20228;-62
2021/05/02 08:23:15;;;;;;;0.10;0.10;;;;;;;;;;5037980;28;20680;-62
2021/05/02 08:25:41;;;;;;;0.53;0.30;;;;;;;;;;5034021;28;20445;-62
2021/05/02 08:28:08;;;;;;;0.30;0.30;;;;;;;;;;5036250;28;20199;-61
2021/05/02 08:30:35;;;;;;;0.00;0.00;;;;;;;;;;5033569;28;20199;-62
2021/05/02 08:33:01;;;;;;;0.53;0.47;;;;;;;;;;5035720;28;20720;-62
2021/05/02 08:35:28;;;;;;;0.27;0.27;;;;;;;;;;5030706;28;20770;-62
2021/05/02 08:37:54;;;;;;;0.00;0.00;;;;;;;;;;5036600;28;20214;-62
2021/05/02 08:40:21;;;;;;;0.00;0.00;;;;;;;;;;5038763;28;20191;-62
2021/05/02 08:42:47;;;;;;;0.00;0.00;;;;;;;;;;5040052;28;20876;-62
2021/05/02 08:45:14;;;;;;;0.87;0.30;;;;;;;;;;5035580;28;20195;-62
2021/05/02 08:47:41;;;;;;;0.30;0.30;;;;;;;;;;5030170;28;20633;-62
2021/05/02 08:50:15;;;;;;;0.40;0.20;;;;;;;;;;5034701;28;20313;-62
2021/05/02 08:52:42;;;;;;;0.00;0.00;;;;;;;;;;5028874;28;20568;-62
2021/05/02 08:55:09;;;;;;;0.00;0.00;;;;;;;;;;5029808;28;20193;-62
2021/05/02 08:57:35;;;;;;;0.00;0.00;;;;;;;;;;5035534;28;20416;-62
2021/05/02 09:00:03;;;;;;;0.53;0.53;;;;;;;;;;5036063;28;20218;-62
2021/05/02 09:02:31;;;;;;;0.00;0.00;;;;;;;;;;5035063;28;20237;-62
2021/05/02 09:04:59;;;;;;;0.00;0.00;;;;;;;;;;5036536;28;20667;-62
2021/05/02 09:07:27;;;;;;;0.00;0.00;;;;;;;;;;5034062;28;20274;-62
2021/05/02 09:09:54;;;;;;;0.00;0.00;;;;;;;;;;5034460;28;20629;-62
2021/05/02 13:00:19;;;;;;;0.00;0.00;;;;;;;;;;5093221;27;21395;-62
2021/05/02 13:02:47;;;;;;;0.00;0.00;;;;;;;;;;5074108;28;20205;-62
2021/05/02 13:05:20;;;;;;;0.00;0.00;;;;;;;;;;5074299;28;20181;-63
2021/05/02 13:07:50;;;;;;;0.00;0.00;;;;;;;;;;5076155;28;20186;-62
2021/05/02 13:10:26;;;;;;;0.23;0.10;;;;;;;;;;5076048;28;20273;-62
2021/05/02 13:12:53;;;;;;;0.00;0.00;;;;;;;;;;5072317;28;20198;-62
2021/05/02 13:15:24;;;;;;;0.00;0.00;;;;;;;;;;5067840;28;20197;-62
2021/05/02 13:17:58;;;;;;;0.00;0.00;;;;;;;;;;5069282;28;20721;-62
2021/05/02 13:20:28;;;;;;;0.03;0.03;;;;;;;;;;5074239;28;20454;-62
2021/05/02 13:22:55;;;;;;;0.97;0.43;;;;;;;;;;5072955;28;20186;-62
2021/05/02 13:25:31;;;;;;;0.40;0.40;;;;;;;;;;5075895;28;20187;-62
2021/05/02 13:28:15;;;;;;;17.33;1.07;;;;;;;;;;5069652;28;20170;-62
2021/05/02 13:30:42;;;;;;;0.30;0.03;;;;;;;;;;5066841;28;20170;-62
2021/05/02 13:33:14;;;;;;;0.13;0.07;;;;;;;;;;5072092;28;20580;-62
2021/05/02 13:35:41;;;;;;;0.00;0.00;;;;;;;;;;5076028;28;20197;-62
2021/05/02 13:38:08;;;;;;;0.60;0.40;;;;;;;;;;5072361;28;20710;-62
2021/05/02 13:40:36;;;;;;;0.90;0.33;;;;;;;;;;5072197;28;20186;-62
2021/05/02 13:43:02;;;;;;;0.07;0.03;;;;;;;;;;5067546;28;20191;-62
2021/05/02 13:45:29;;;;;;;1.70;1.60;;;;;;;;;;5072501;28;20787;-62
2021/05/02 13:47:56;;;;;;;0.50;0.43;;;;;;;;;;5072536;28;20579;-62
2021/05/02 13:50:22;;;;;;;0.83;0.60;;;;;;;;;;5072214;28;20177;-62
2021/05/02 13:52:51;;;;;;;0.10;0.10;;;;;;;;;;5071728;28;20241;-62
2021/05/02 13:55:19;;;;;;;0.10;0.10;;;;;;;;;;5072859;28;20221;-61
2021/05/02 13:57:49;;;;;;;0.47;0.47;;;;;;;;;;5072082;28;20720;-62
2021/05/02 14:00:16;;;;;;;0.33;0.33;;;;;;;;;;5079899;28;20333;-61
2021/05/02 14:02:44;;;;;;;0.00;0.00;;;;;;;;;;5077094;28;20290;-61
2021/05/02 14:05:12;;;;;;;0.00;0.00;;;;;;;;;;5073425;28;20384;-61
2021/05/02 14:07:38;;;;;;;0.10;0.10;;;;;;;;;;5067341;28;20267;-61
2021/05/02 14:10:06;;;;;;;0.00;0.00;;;;;;;;;;5065465;28;20596;-60
2021/05/02 14:12:33;;;;;;;0.00;0.00;;;;;;;;;;5054694;28;20197;-61
2021/05/02 14:14:59;;;;;;;1.17;0.57;;;;;;;;;;5057482;28;20190;-60
2021/05/02 14:17:26;;;;;;;1.57;0.20;;;;;;;;;;5057554;28;20430;-61
2021/05/02 14:19:53;;;;;;;0.23;0.23;;;;;;;;;;5057518;28;20522;-61
2021/05/02 14:22:20;;;;;;;0.23;0.10;;;;;;;;;;5057308;28;20181;-61
2021/05/02 14:24:47;;;;;;;1.10;0.37;;;;;;;;;;5058967;28;20231;-61
2021/05/02 14:27:13;;;;;;;0.30;0.20;;;;;;;;;;5058966;28;20233;-60
2021/05/02 14:29:40;;;;;;;0.10;0.10;;;;;;;;;;5058535;28;20190;-61
2021/05/02 14:32:07;;;;;;;0.23;0.10;;;;;;;;;;5057387;28;20183;-61
2021/05/02 14:34:35;;;;;;;1.50;0.83;;;;;;;;;;5062407;28;20187;-61
2021/05/02 14:37:02;;;;;;;0.10;0.10;;;;;;;;;;5056297;28;20240;-61
2021/05/02 14:39:31;;;;;;;0.67;0.37;;;;;;;;;;5055878;28;20591;-60
2021/05/02 14:41:58;;;;;;;0.63;0.63;;;;;;;;;;5060663;28;21242;-61
2021/05/02 14:44:25;;;;;;;2.63;2.53;;;;;;;;;;5062399;28;20232;-61
2021/05/02 14:46:51;;;;;;;0.17;0.17;;;;;;;;;;5058947;28;20749;-61
2021/05/02 14:49:18;;;;;;;0.10;0.10;;;;;;;;;;5057663;28;20597;-61
2021/05/02 14:51:45;;;;;;;0.00;0.00;;;;;;;;;;5058333;28;20519;-61
2021/05/02 14:54:11;;;;;;;0.33;0.33;;;;;;;;;;5066749;28;20192;-62
2021/05/02 14:56:38;;;;;;;0.00;0.00;;;;;;;;;;5056823;28;20218;-61
2021/05/02 14:59:05;;;;;;;3.53;0.40;;;;;;;;;;5054713;28;20225;-61
2021/05/02 15:01:32;;;;;;;0.00;0.00;;;;;;;;;;5058554;28;20182;-62
2021/05/02 15:03:58;;;;;;;2.53;0.47;;;;;;;;;;5056376;28;20197;-61
2021/05/02 15:06:25;;;;;;;0.40;0.00;;;;;;;;;;5055313;28;20228;-61
2021/05/02 15:08:51;;;;;;;0.60;0.30;;;;;;;;;;5054400;28;20193;-61
2021/05/02 15:11:18;;;;;;;1.13;1.03;;;;;;;;;;5056372;28;20194;-61
2021/05/02 15:13:45;;;;;;;0.93;0.20;;;;;;;;;;5057598;28;20403;-62
2021/05/02 15:16:11;;;;;;;1.60;0.47;;;;;;;;;;5057911;28;20606;-61
2021/05/02 15:18:38;;;;;;;1.23;0.60;;;;;;;;;;5055043;28;20457;-61
2021/05/02 15:21:06;;;;;;;0.93;0.20;;;;;;;;;;5056569;28;20266;-61
2021/05/02 15:23:33;;;;;;;0.07;0.07;;;;;;;;;;5055214;28;20186;-61
2021/05/02 15:25:59;;;;;;;0.13;0.13;;;;;;;;;;5056678;28;20190;-61
2021/05/02 15:28:26;;;;;;;0.87;0.50;;;;;;;;;;5056775;28;20997;-62
2021/05/02 15:30:53;;;;;;;1.27;0.23;;;;;;;;;;5058441;28;20222;-61
2021/05/02 15:33:23;;;;;;;5.83;0.50;;;;;;;;;;5060350;28;20594;-61
2021/05/02 15:35:49;;;;;;;0.20;0.20;;;;;;;;;;5058647;28;20179;-61
2021/05/02 15:38:16;;;;;;;0.10;0.10;;;;;;;;;;5058008;28;20206;-63
2021/05/02 15:40:43;;;;;;;0.00;0.00;;;;;;;;;;5056581;28;21452;-63
2021/05/02 15:43:10;;;;;;;0.43;0.40;;;;;;;;;;5053918;28;20602;-64
2021/05/02 15:45:37;;;;;;;0.13;0.13;;;;;;;;;;5053830;28;20186;-63
2021/05/02 15:48:03;;;;;;;1.63;0.73;;;;;;;;;;5060040;28;20189;-63
2021/05/02 15:50:30;;;;;;;0.17;0.13;;;;;;;;;;5054980;28;20175;-63
2021/05/02 15:52:57;;;;;;;0.47;0.10;;;;;;;;;;5059583;28;21117;-63
2021/05/02 15:55:24;;;;;;;0.97;0.43;;;;;;;;;;5054528;28;20186;-63
2021/05/02 15:57:50;;;;;;;0.20;0.20;;;;;;;;;;5055359;28;20187;-63
2021/05/02 16:00:17;;;;;;;0.00;0.00;;;;;;;;;;5057330;28;20241;-62
2021/05/02 16:02:44;;;;;;;0.07;0.07;;;;;;;;;;5057287;28;20519;-62
2021/05/02 16:05:11;;;;;;;1.53;1.43;;;;;;;;;;5057937;28;20216;-62
2021/05/02 16:07:37;;;;;;;0.40;0.30;;;;;;;;;;5062821;28;20187;-63
2021/05/02 16:10:05;;;;;;;0.00;0.00;;;;;;;;;;5058243;28;20273;-63
2021/05/02 16:12:31;;;;;;;0.20;0.10;;;;;;;;;;5058805;28;20190;-63
2021/05/02 16:14:59;;;;;;;0.10;0.10;;;;;;;;;;5056574;28;20201;-63
2021/05/02 16:17:26;;;;;;;0.00;0.00;;;;;;;;;;5056511;28;20198;-62
2021/05/02 16:19:53;;;;;;;0.00;0.00;;;;;;;;;;5057555;28;20217;-63
2021/05/02 16:22:19;;;;;;;0.03;0.03;;;;;;;;;;5056125;28;20225;-63
2021/05/02 16:24:46;;;;;;;13.93;1.43;;;;;;;;;;5057102;28;20598;-63
2021/05/02 16:27:22;;;;;;;1.00;0.70;;;;;;;;;;5057570;28;20507;-63
2021/05/02 16:29:49;;;;;;;2.87;0.87;;;;;;;;;;5055663;28;20220;-63
2021/05/02 16:32:15;;;;;;;0.83;0.50;;;;;;;;;;5056026;28;20236;-62
2021/05/02 16:34:41;;;;;;;0.00;0.00;;;;;;;;;;5054859;28;20637;-62
2021/05/02 16:37:08;;;;;;;0.37;0.37;;;;;;;;;;5055573;28;20197;-63
2021/05/02 16:39:35;;;;;;;3.53;0.20;;;;;;;;;;5056420;28;20567;-64
2021/05/02 16:42:02;;;;;;;1.90;0.47;;;;;;;;;;5057568;28;20609;-63
2021/05/02 16:44:31;;;;;;;0.87;0.37;;;;;;;;;;5060047;28;20185;-64
2021/05/02 16:46:58;;;;;;;0.00;0.00;;;;;;;;;;5052653;28;20184;-64
2021/05/02 16:49:26;;;;;;;2.03;0.67;;;;;;;;;;5056204;28;20190;-63
2021/05/02 16:51:53;;;;;;;0.80;0.57;;;;;;;;;;5056449;28;20190;-64
2021/05/02 16:54:19;;;;;;;0.00;0.00;;;;;;;;;;5059358;28;20190;-63
2021/05/02 16:56:46;;;;;;;0.20;0.20;;;;;;;;;;5055644;28;20221;-64
2021/05/02 16:59:13;;;;;;;0.40;0.30;;;;;;;;;;5058081;28;20292;-64
2021/05/02 17:01:39;;;;;;;1.53;0.60;;;;;;;;;;5054033;28;20187;-63
2021/05/02 17:04:06;;;;;;;0.20;0.20;;;;;;;;;;5044804;28;20199;-63
2021/05/02 17:06:32;;;;;;;0.40;0.40;;;;;;;;;;5056909;28;20267;-63
2021/05/02 17:08:59;;;;;;;0.50;0.43;;;;;;;;;;5054931;28;20197;-63
2021/05/02 17:11:25;;;;;;;2.80;0.20;;;;;;;;;;5060793;28;20736;-63
2021/05/02 17:13:52;;;;;;;0.10;0.10;;;;;;;;;;5048992;28;20220;-63
2021/05/02 17:16:18;;;;;;;0.10;0.10;;;;;;;;;;5055428;28;20695;-63
2021/05/02 17:18:45;;;;;;;1.03;0.30;;;;;;;;;;5056055;28;20198;-63
2021/05/02 17:21:13;;;;;;;0.20;0.20;;;;;;;;;;5055669;28;20187;-63
2021/05/02 17:23:40;;;;;;;0.50;0.40;;;;;;;;;;5057764;28;20194;-62
2021/05/02 17:26:06;;;;;;;16.13;0.43;;;;;;;;;;5060603;28;20600;-63
2021/05/02 17:28:33;;;;;;;0.10;0.10;;;;;;;;;;5056860;28;20667;-63
2021/05/02 17:31:00;;;;;;;0.10;0.10;;;;;;;;;;5054268;28;20182;-62
2021/05/02 17:33:26;;;;;;;0.93;0.40;;;;;;;;;;5055721;28;20222;-63
2021/05/02 17:35:53;;;;;;;0.50;0.50;;;;;;;;;;5056237;28;20645;-62
2021/05/02 17:38:19;;;;;;;1.90;0.20;;;;;;;;;;5053429;28;20215;-63
2021/05/02 17:40:46;;;;;;;9.43;0.93;;;;;;;;;;5053492;28;20643;-63
2021/05/02 17:43:12;;;;;;;0.23;0.20;;;;;;;;;;5062934;28;20197;-62
2021/05/02 17:45:39;;;;;;;2.47;0.87;;;;;;;;;;5057084;28;20194;-62
2021/05/02 17:48:08;;;;;;;0.00;0.00;;;;;;;;;;5058876;28;20529;-63
2021/05/02 17:50:36;;;;;;;1.37;1.03;;;;;;;;;;5059564;28;20887;-63
2021/05/02 17:53:03;;;;;;;0.93;0.87;;;;;;;;;;5053992;28;20519;-63
2021/05/02 17:55:29;;;;;;;0.10;0.10;;;;;;;;;;5060478;28;20207;-63
2021/05/02 17:57:56;;;;;;;0.53;0.50;;;;;;;;;;5059980;28;20190;-63
2021/05/02 18:00:24;;;;;;;0.10;0.10;;;;;;;;;;5057236;28;20333;-63
2021/05/02 18:02:50;;;;;;;2.07;0.93;;;;;;;;;;5058527;28;20186;-63
2021/05/02 18:05:20;;;;;;;4.33;1.27;;;;;;;;;;5059516;28;21019;-63
2021/05/02 18:07:48;;;;;;;1.00;0.93;;;;;;;;;;5053207;28;20267;-63
2021/05/02 18:10:14;;;;;;;2.67;0.57;;;;;;;;;;5066374;28;20255;-63
2021/05/02 18:12:41;;;;;;;1.17;0.30;;;;;;;;;;5055077;28;20630;-63
2021/05/02 18:15:09;;;;;;;0.67;0.20;;;;;;;;;;5063220;28;20260;-63
2021/05/02 18:17:35;;;;;;;0.00;0.00;;;;;;;;;;5057311;28;20249;-63
2021/05/02 18:20:03;;;;;;;0.30;0.30;;;;;;;;;;5065003;28;20671;-63
2021/05/02 18:22:29;;;;;;;0.10;0.10;;;;;;;;;;5056557;28;20186;-63
2021/05/02 18:24:56;;;;;;;0.20;0.17;;;;;;;;;;5058655;28;20221;-64
2021/05/02 18:27:24;;;;;;;0.60;0.43;;;;;;;;;;5058457;28;20197;-63
2021/05/02 18:29:50;;;;;;;0.83;0.30;;;;;;;;;;5059278;28;20644;-63
2021/05/02 18:32:17;;;;;;;0.00;0.00;;;;;;;;;;5053798;28;20285;-63
2021/05/02 18:34:44;;;;;;;4.10;0.67;;;;;;;;;;5061756;28;20185;-64